createdAt,value
2018-06-28T00:00:05.148Z,98584.80
2018-06-28T00:01:11.184Z,98590.12
2018-06-28T00:02:15.809Z,98583.57
2018-06-28T00:03:20.478Z,98583.54
2018-06-28T00:04:25.269Z,98584.98
2018-06-28T00:05:30.509Z,98584.07
2018-06-28T00:06:36.550Z,98583.89
2018-06-28T00:07:41.579Z,98582.87
2018-06-28T00:08:46.368Z,98583.08
2018-06-28T00:09:51.331Z,98578.47
2018-06-28T00:10:56.765Z,98581.92
2018-06-28T00:12:01.436Z,98575.93
2018-06-28T00:13:06.125Z,98572.94
2018-06-28T00:14:11.070Z,98572.48
2018-06-28T00:15:15.671Z,98578.61
2018-06-28T00:16:20.945Z,98579.91
2018-06-28T00:17:25.588Z,98573.07
2018-06-28T00:18:30.230Z,98579.27
2018-06-28T00:19:34.813Z,98577.17
2018-06-28T00:20:41.022Z,98584.50
2018-06-28T00:21:45.539Z,98580.45
2018-06-28T00:22:50.030Z,98582.84
2018-06-28T00:23:54.590Z,98579.27
2018-06-28T00:24:59.794Z,98579.86
2018-06-28T00:26:04.302Z,98582.64
2018-06-28T00:27:09.169Z,98574.82
2018-06-28T00:28:15.352Z,98580.30
2018-06-28T00:29:20.849Z,98580.20
2018-06-28T00:30:25.530Z,98573.12
2018-06-28T00:31:30.149Z,98576.27
2018-06-28T00:32:34.829Z,98580.22
2018-06-28T00:33:40.490Z,98585.02
2018-06-28T00:34:45.982Z,98578.58
2018-06-28T00:35:52.021Z,98582.54
2018-06-28T00:36:56.673Z,98583.86
2018-06-28T00:38:02.050Z,98576.05
2018-06-28T00:39:08.135Z,98578.38
2018-06-28T00:40:13.349Z,98577.57
2018-06-28T00:41:19.001Z,98578.48
2018-06-28T00:42:23.703Z,98580.81
2018-06-28T00:43:28.556Z,98579.45
2018-06-28T00:44:33.237Z,98581.11
2018-06-28T00:45:37.968Z,98578.22
2018-06-28T00:46:43.037Z,98583.55
2018-06-28T00:47:47.691Z,98580.57
2018-06-28T00:48:53.727Z,98587.05
2018-06-28T00:49:58.750Z,98580.97
2018-06-28T00:51:03.456Z,98585.08
2018-06-28T00:52:08.201Z,98580.66
2018-06-28T00:53:13.161Z,98582.38
2018-06-28T00:54:17.806Z,98586.81
2018-06-28T00:55:23.496Z,98580.97
2018-06-28T00:56:28.165Z,98589.97
2018-06-28T00:57:32.833Z,98589.20
2018-06-28T00:58:37.506Z,98593.19
2018-06-28T00:59:45.374Z,98591.13
2018-06-28T01:00:50.030Z,98594.28
2018-06-28T01:01:54.664Z,98588.39
2018-06-28T01:02:59.306Z,98588.12
2018-06-28T01:04:03.963Z,98592.56
2018-06-28T01:05:09.198Z,98589.58
2018-06-28T01:06:14.253Z,98585.41
2018-06-28T01:07:18.904Z,98582.52
2018-06-28T01:08:23.542Z,98591.29
2018-06-28T01:09:28.426Z,98588.77
2018-06-28T01:10:33.050Z,98587.77
2018-06-28T01:11:37.833Z,98592.99
2018-06-28T01:12:42.955Z,98590.98
2018-06-28T01:13:47.603Z,98586.92
2018-06-28T01:14:52.242Z,98589.91
2018-06-28T01:15:56.901Z,98591.27
2018-06-28T01:17:01.566Z,98588.84
2018-06-28T01:18:06.199Z,98593.11
2018-06-28T01:19:11.323Z,98589.38
2018-06-28T01:20:16.055Z,98596.70
2018-06-28T01:21:20.764Z,98591.19
2018-06-28T01:22:25.482Z,98595.55
2018-06-28T01:23:30.179Z,98590.39
2018-06-28T01:24:35.736Z,98588.05
2018-06-28T01:25:44.498Z,98588.31
2018-06-28T01:26:50.446Z,98588.41
2018-06-28T01:27:55.093Z,98593.27
2018-06-28T01:29:00.964Z,98589.94
2018-06-28T01:30:06.039Z,98586.41
2018-06-28T01:31:12.317Z,98592.38
2018-06-28T01:32:17.301Z,98586.84
2018-06-28T01:33:22.038Z,98581.53
2018-06-28T01:34:26.723Z,98583.41
2018-06-28T01:35:31.350Z,98583.05
2018-06-28T01:36:35.951Z,98585.42
2018-06-28T01:37:40.575Z,98580.53
2018-06-28T01:38:45.597Z,98584.13
2018-06-28T01:39:51.654Z,98582.51
2018-06-28T01:40:56.269Z,98582.06
2018-06-28T01:42:05.965Z,98579.98
2018-06-28T01:43:29.685Z,98577.02
2018-06-28T01:44:34.785Z,98580.36
2018-06-28T01:45:39.407Z,98580.36
2018-06-28T01:46:44.104Z,98580.27
2018-06-28T01:47:48.719Z,98582.70
2018-06-28T01:48:53.634Z,98577.93
2018-06-28T01:49:58.282Z,98582.80
2018-06-28T01:51:03.292Z,98580.34
2018-06-28T01:52:07.916Z,98575.66
2018-06-28T01:53:12.553Z,98573.94
2018-06-28T01:54:17.168Z,98577.48
2018-06-28T01:55:21.819Z,98573.42
2018-06-28T01:56:26.437Z,98573.06
2018-06-28T01:57:31.658Z,98570.17
2018-06-28T01:58:36.286Z,98570.98
2018-06-28T01:59:42.662Z,98572.59
2018-06-28T02:00:47.387Z,98571.50
2018-06-28T02:01:52.098Z,98569.98
2018-06-28T02:02:56.721Z,98579.10
2018-06-28T02:04:01.724Z,98577.48
2018-06-28T02:05:06.359Z,98574.04
2018-06-28T02:06:10.990Z,98569.19
2018-06-28T02:07:15.608Z,98570.09
2018-06-28T02:08:20.523Z,98569.09
2018-06-28T02:09:25.180Z,98571.25
2018-06-28T02:10:29.835Z,98569.64
2018-06-28T02:11:34.492Z,98574.70
2018-06-28T02:12:39.118Z,98568.27
2018-06-28T02:13:43.757Z,98568.91
2018-06-28T02:14:48.374Z,98567.02
2018-06-28T02:15:52.983Z,98567.73
2018-06-28T02:16:58.099Z,98567.55
2018-06-28T02:18:03.351Z,98568.08
2018-06-28T02:19:07.993Z,98567.91
2018-06-28T02:20:13.495Z,98568.73
2018-06-28T02:21:18.014Z,98563.03
2018-06-28T02:22:22.686Z,98574.05
2018-06-28T02:23:28.861Z,98573.33
2018-06-28T02:24:33.370Z,98569.72
2018-06-28T02:25:38.177Z,98564.12
2018-06-28T02:26:42.702Z,98567.28
2018-06-28T02:27:47.246Z,98565.94
2018-06-28T02:28:51.741Z,98561.95
2018-06-28T02:29:57.073Z,98565.20
2018-06-28T02:31:03.212Z,98569.17
2018-06-28T02:32:07.727Z,98565.73
2018-06-28T02:33:12.240Z,98561.85
2018-06-28T02:34:16.857Z,98560.14
2018-06-28T02:35:21.367Z,98565.64
2018-06-28T02:36:26.389Z,98564.38
2018-06-28T02:37:30.968Z,98563.38
2018-06-28T02:38:35.483Z,98564.30
2018-06-28T02:39:40.049Z,98567.20
2018-06-28T02:40:45.388Z,98566.81
2018-06-28T02:41:50.414Z,98568.37
2018-06-28T02:42:55.938Z,98566.66
2018-06-28T02:44:00.461Z,98564.86
2018-06-28T02:45:05.060Z,98563.86
2018-06-28T02:46:09.572Z,98562.68
2018-06-28T02:47:14.077Z,98565.58
2018-06-28T02:48:19.062Z,98561.70
2018-06-28T02:49:23.651Z,98557.81
2018-06-28T02:50:28.906Z,98552.85
2018-06-28T02:51:33.454Z,98557.45
2018-06-28T02:52:38.699Z,98559.33
2018-06-28T02:53:44.035Z,98552.84
2018-06-28T02:54:50.344Z,98554.07
2018-06-28T02:55:55.016Z,98549.92
2018-06-28T02:56:59.624Z,98554.13
2018-06-28T02:58:04.214Z,98557.28
2018-06-28T02:59:09.358Z,98558.88
2018-06-28T03:00:14.015Z,98558.89
2018-06-28T03:01:19.049Z,98554.45
2018-06-28T03:02:23.677Z,98555.38
2018-06-28T03:03:28.295Z,98560.34
2018-06-28T03:04:33.000Z,98562.38
2018-06-28T03:05:38.622Z,98557.83
2018-06-28T03:06:45.116Z,98559.63
2018-06-28T03:07:50.186Z,98556.62
2018-06-28T03:08:57.075Z,98554.59
2018-06-28T03:10:04.769Z,98548.22
2018-06-28T03:11:10.327Z,98556.23
2018-06-28T03:12:14.964Z,98547.28
2018-06-28T03:13:19.838Z,98553.63
2018-06-28T03:14:25.197Z,98555.45
2018-06-28T03:15:30.008Z,98554.34
2018-06-28T03:16:35.494Z,98555.11
2018-06-28T03:17:41.940Z,98556.27
2018-06-28T03:18:46.557Z,98554.22
2018-06-28T03:19:51.184Z,98559.83
2018-06-28T03:20:56.973Z,98554.03
2018-06-28T03:22:01.676Z,98557.03
2018-06-28T03:23:06.300Z,98560.08
2018-06-28T03:24:11.412Z,98563.22
2018-06-28T03:25:16.046Z,98561.47
2018-06-28T03:26:21.086Z,98564.30
2018-06-28T03:27:25.993Z,98565.12
2018-06-28T03:28:30.649Z,98564.34
2018-06-28T03:29:35.270Z,98563.53
2018-06-28T03:30:40.084Z,98565.33
2018-06-28T03:31:45.076Z,98567.78
2018-06-28T03:32:49.697Z,98568.31
2018-06-28T03:33:54.678Z,98566.89
2018-06-28T03:34:59.703Z,98566.95
2018-06-28T03:36:04.358Z,98573.13
2018-06-28T03:37:09.089Z,98570.63
2018-06-28T03:38:13.717Z,98573.56
2018-06-28T03:39:18.351Z,98567.81
2018-06-28T03:40:23.904Z,98574.31
2018-06-28T03:41:28.902Z,98569.89
2018-06-28T03:42:33.586Z,98572.30
2018-06-28T03:43:38.261Z,98564.20
2018-06-28T03:44:43.444Z,98574.68
2018-06-28T03:45:48.480Z,98571.03
2018-06-28T03:46:53.504Z,98575.63
2018-06-28T03:47:58.528Z,98570.05
2018-06-28T03:49:03.879Z,98569.77
2018-06-28T03:50:08.598Z,98566.98
2018-06-28T03:51:13.490Z,98572.31
2018-06-28T03:52:19.096Z,98570.97
2018-06-28T03:53:24.115Z,98565.02
2018-06-28T03:54:28.771Z,98566.64
2018-06-28T03:55:34.214Z,98570.79
2018-06-28T03:56:39.296Z,98564.48
2018-06-28T03:57:43.977Z,98571.05
2018-06-28T03:58:48.628Z,98564.83
2018-06-28T03:59:53.589Z,98571.33
2018-06-28T04:00:58.288Z,98561.66
2018-06-28T04:02:02.889Z,98564.01
2018-06-28T04:03:08.255Z,98560.06
2018-06-28T04:04:13.438Z,98562.02
2018-06-28T04:05:18.029Z,98557.36
2018-06-28T04:06:23.041Z,98559.69
2018-06-28T04:07:27.573Z,98563.30
2018-06-28T04:08:33.455Z,98560.61
2018-06-28T04:09:38.518Z,98563.16
2018-06-28T04:10:43.065Z,98558.88
2018-06-28T04:11:48.079Z,98558.89
2018-06-28T04:12:52.587Z,98555.73
2018-06-28T04:13:57.141Z,98554.94
2018-06-28T04:15:02.795Z,98558.64
2018-06-28T04:16:08.248Z,98557.47
2018-06-28T04:17:12.937Z,98559.52
2018-06-28T04:18:17.781Z,98562.93
2018-06-28T04:19:23.215Z,98564.72
2018-06-28T04:20:28.204Z,98566.58
2018-06-28T04:21:34.381Z,98567.57
2018-06-28T04:22:39.664Z,98573.29
2018-06-28T04:23:44.453Z,98564.18
2018-06-28T04:24:51.175Z,98562.59
2018-06-28T04:25:55.963Z,98563.69
2018-06-28T04:27:00.843Z,98567.81
2018-06-28T04:28:05.712Z,98566.58
2018-06-28T04:29:10.583Z,98571.84
2018-06-28T04:30:15.638Z,98567.08
2018-06-28T04:31:20.933Z,98562.32
2018-06-28T04:32:26.911Z,98561.97
2018-06-28T04:33:32.110Z,98569.81
2018-06-28T04:34:37.531Z,98568.72
2018-06-28T04:35:42.727Z,98570.80
2018-06-28T04:36:47.655Z,98576.75
2018-06-28T04:37:52.677Z,98576.67
2018-06-28T04:38:57.464Z,98575.05
2018-06-28T04:40:02.461Z,98575.76
2018-06-28T04:41:07.606Z,98576.84
2018-06-28T04:42:12.687Z,98574.58
2018-06-28T04:43:17.734Z,98572.33
2018-06-28T04:44:23.310Z,98575.39
2018-06-28T04:45:28.416Z,98573.42
2018-06-28T04:46:33.372Z,98577.74
2018-06-28T04:47:38.404Z,98573.33
2018-06-28T04:48:43.696Z,98573.23
2018-06-28T04:49:48.786Z,98576.85
2018-06-28T04:50:54.087Z,98573.52
2018-06-28T04:51:59.211Z,98567.87
2018-06-28T04:53:04.299Z,98570.95
2018-06-28T04:54:09.378Z,98571.52
2018-06-28T04:55:14.438Z,98572.42
2018-06-28T04:56:19.422Z,98572.24
2018-06-28T04:57:24.561Z,98573.77
2018-06-28T04:58:29.189Z,98572.27
2018-06-28T04:59:34.057Z,98573.05
2018-06-28T05:00:39.526Z,98565.20
2018-06-28T05:01:44.200Z,98565.12
2018-06-28T05:02:48.854Z,98568.11
2018-06-28T05:03:54.858Z,98566.66
2018-06-28T05:04:59.490Z,98573.88
2018-06-28T05:06:04.166Z,98564.40
2018-06-28T05:07:09.869Z,98565.46
2018-06-28T05:08:14.537Z,98571.33
2018-06-28T05:09:19.148Z,98564.94
2018-06-28T05:10:24.216Z,98570.00
2018-06-28T05:11:28.903Z,98557.97
2018-06-28T05:12:33.585Z,98562.42
2018-06-28T05:13:38.230Z,98558.78
2018-06-28T05:14:42.882Z,98558.08
2018-06-28T05:15:47.673Z,98557.81
2018-06-28T05:16:52.760Z,98560.06
2018-06-28T05:17:57.806Z,98558.16
2018-06-28T05:19:02.604Z,98561.06
2018-06-28T05:20:10.677Z,98562.32
2018-06-28T05:21:15.553Z,98556.70
2018-06-28T05:22:20.246Z,98561.23
2018-06-28T05:23:25.285Z,98564.65
2018-06-28T05:24:30.046Z,98565.28
2018-06-28T05:25:34.669Z,98565.22
2018-06-28T05:26:39.308Z,98564.84
2018-06-28T05:27:43.930Z,98564.30
2018-06-28T05:28:48.702Z,98562.94
2018-06-28T05:29:53.829Z,98562.86
2018-06-28T05:30:58.627Z,98564.83
2018-06-28T05:32:03.286Z,98568.32
2018-06-28T05:33:08.886Z,98565.53
2018-06-28T05:34:13.742Z,98565.06
2018-06-28T05:35:19.097Z,98565.84
2018-06-28T05:36:24.167Z,98566.09
2018-06-28T05:37:29.137Z,98563.47
2018-06-28T05:38:34.825Z,98559.41
2018-06-28T05:39:40.082Z,98561.48
2018-06-28T05:40:44.751Z,98564.57
2018-06-28T05:41:49.467Z,98566.45
2018-06-28T05:42:54.570Z,98564.08
2018-06-28T05:43:59.235Z,98564.75
2018-06-28T05:45:04.056Z,98561.05
2018-06-28T05:46:24.234Z,98563.58
2018-06-28T05:47:35.466Z,98563.84
2018-06-28T05:48:40.591Z,98561.05
2018-06-28T05:49:46.531Z,98557.61
2018-06-28T05:50:56.389Z,98554.36
2018-06-28T05:52:01.073Z,98558.63
2018-06-28T05:53:05.970Z,98558.17
2018-06-28T05:54:11.555Z,98557.30
2018-06-28T05:55:19.098Z,98558.88
2018-06-28T05:56:23.774Z,98554.88
2018-06-28T05:57:29.230Z,98561.66
2018-06-28T05:58:34.660Z,98553.70
2018-06-28T05:59:39.169Z,98550.87
2018-06-28T06:00:44.065Z,98548.77
2018-06-28T06:01:48.628Z,98553.27
2018-06-28T06:02:53.189Z,98553.63
2018-06-28T06:03:57.898Z,98550.88
2018-06-28T06:05:02.474Z,98552.35
2018-06-28T06:06:07.120Z,98555.14
2018-06-28T06:07:12.450Z,98553.09
2018-06-28T06:08:17.011Z,98550.92
2018-06-28T06:09:22.198Z,98548.11
2018-06-28T06:10:29.202Z,98550.36
2018-06-28T06:11:33.720Z,98551.83
2018-06-28T06:12:38.952Z,98555.59
2018-06-28T06:13:43.835Z,98553.59
2018-06-28T06:14:48.433Z,98553.37
2018-06-28T06:15:53.181Z,98550.14
2018-06-28T06:16:57.708Z,98554.27
2018-06-28T06:18:02.233Z,98548.27
2018-06-28T06:19:06.995Z,98554.31
2018-06-28T06:20:11.936Z,98558.31
2018-06-28T06:21:16.509Z,98549.09
2018-06-28T06:22:21.000Z,98552.23
2018-06-28T06:23:25.530Z,98552.56
2018-06-28T06:24:31.994Z,98557.56
2018-06-28T06:25:41.113Z,98550.86
2018-06-28T06:26:46.264Z,98556.75
2018-06-28T06:27:50.922Z,98558.72
2018-06-28T06:28:55.648Z,98558.72
2018-06-28T06:30:00.286Z,98560.04
2018-06-28T06:31:05.480Z,98558.09
2018-06-28T06:32:10.294Z,98559.77
2018-06-28T06:33:15.386Z,98550.53
2018-06-28T06:45:25.749Z,98563.78
2018-06-28T06:46:30.460Z,98569.55
2018-06-28T06:47:35.151Z,98569.89
2018-06-28T06:48:39.957Z,98562.92
2018-06-28T06:49:45.278Z,98561.95
2018-06-28T06:56:45.712Z,98558.20
2018-06-28T06:57:58.738Z,98560.11
2018-06-28T06:59:03.463Z,98561.31
2018-06-28T07:00:09.716Z,98565.06
2018-06-28T07:01:15.282Z,98563.14
2018-06-28T07:02:28.565Z,98559.23
2018-06-28T07:03:33.349Z,98559.26
2018-06-28T07:04:38.320Z,98559.14
2018-06-28T07:05:43.658Z,98558.31
2018-06-28T07:06:48.181Z,98558.91
2018-06-28T07:07:52.681Z,98549.80
2018-06-28T07:08:57.186Z,98555.91
2018-06-28T07:10:01.738Z,98553.67
2018-06-28T07:11:07.545Z,98550.58
2018-06-28T07:12:12.906Z,98551.80
2018-06-28T07:13:17.420Z,98549.05
2018-06-28T07:14:22.990Z,98544.94
2018-06-28T07:15:27.673Z,98546.48
2018-06-28T07:16:32.173Z,98545.27
2018-06-28T07:17:37.139Z,98549.11
2018-06-28T07:18:42.282Z,98548.78
2018-06-28T07:19:47.855Z,98549.45
2018-06-28T07:20:53.672Z,98550.34
2018-06-28T07:21:58.253Z,98550.02
2018-06-28T07:24:24.913Z,98558.28
2018-06-28T07:25:29.454Z,98560.45
2018-06-28T07:29:18.049Z,98560.18
2018-06-28T07:30:22.589Z,98551.90
2018-06-28T07:31:27.635Z,98553.36
2018-06-28T07:32:37.013Z,98551.98
2018-06-28T07:35:03.980Z,98548.48
2018-06-28T07:36:08.527Z,98552.97
2018-06-28T07:37:13.122Z,98553.71
2018-06-28T07:38:17.670Z,98558.75
2018-06-28T07:39:22.809Z,98557.22
2018-06-28T07:40:27.928Z,98560.52
2018-06-28T07:41:33.730Z,98547.33
2018-06-28T07:42:38.426Z,98561.98
2018-06-28T07:43:46.031Z,98555.92
2018-06-28T07:44:51.162Z,98555.88
2018-06-28T07:45:56.759Z,98562.31
2018-06-28T07:47:01.861Z,98556.19
2018-06-28T07:48:08.591Z,98561.66
2018-06-28T07:49:13.433Z,98557.02
2018-06-28T07:50:18.101Z,98563.67
2018-06-28T07:51:22.706Z,98555.86
2018-06-28T07:56:55.570Z,98558.23
2018-06-28T07:58:01.218Z,98556.41
2018-06-28T07:59:06.058Z,98558.14
2018-06-28T08:00:10.742Z,98558.81
2018-06-28T08:01:17.301Z,98566.21
2018-06-28T08:02:22.042Z,98558.63
2018-06-28T08:03:27.506Z,98560.84
2018-06-28T08:04:33.148Z,98559.03
2018-06-28T08:05:37.812Z,98553.69
2018-06-28T08:06:44.419Z,98548.75
2018-06-28T08:07:51.351Z,98550.32
2018-06-28T08:08:57.551Z,98543.62
2018-06-28T08:10:07.317Z,98544.83
2018-06-28T08:11:12.730Z,98543.27
2018-06-28T08:12:18.761Z,98540.21
2018-06-28T08:13:26.224Z,98539.22
2018-06-28T08:14:32.996Z,98530.78
2018-06-28T08:15:39.661Z,98539.52
2018-06-28T08:16:45.352Z,98544.26
2018-06-28T08:17:51.028Z,98530.20
2018-06-28T08:18:57.741Z,98541.77
2018-06-28T08:21:13.767Z,98531.89
2018-06-28T08:22:18.299Z,98533.97
2018-06-28T08:23:23.507Z,98539.33
2018-06-28T08:24:28.779Z,98538.02
2018-06-28T08:25:33.417Z,98534.40
2018-06-28T08:27:52.482Z,98527.78
2018-06-28T08:28:59.029Z,98527.45
2018-06-28T08:30:05.000Z,98530.93
2018-06-28T08:31:09.681Z,98531.41
2018-06-28T08:32:14.377Z,98535.13
2018-06-28T08:33:20.810Z,98531.78
2018-06-28T08:34:29.583Z,98534.38
2018-06-28T08:35:35.042Z,98532.89
2018-06-28T08:36:42.561Z,98537.67
2018-06-28T08:37:49.032Z,98535.43
2018-06-28T08:38:54.674Z,98536.20
2018-06-28T08:39:59.825Z,98532.44
2018-06-28T08:41:07.733Z,98528.23
2018-06-28T08:42:13.189Z,98534.30
2018-06-28T08:43:18.548Z,98529.82
2018-06-28T08:44:23.846Z,98531.09
2018-06-28T08:45:29.611Z,98527.54
2018-06-28T08:46:36.443Z,98537.84
2018-06-28T08:47:41.189Z,98535.09
2018-06-28T08:48:46.303Z,98534.65
2018-06-28T08:49:53.840Z,98541.56
2018-06-28T08:50:59.378Z,98525.66
2018-06-28T08:54:34.668Z,98535.76
2018-06-28T08:55:39.323Z,98540.49
2018-06-28T08:56:45.247Z,98531.27
2018-06-28T08:57:49.882Z,98539.38
2018-06-28T08:58:55.539Z,98533.41
2018-06-28T09:00:00.121Z,98533.66
2018-06-28T09:01:05.861Z,98537.45
2018-06-28T09:02:11.135Z,98532.97
2018-06-28T09:03:16.705Z,98532.06
2018-06-28T09:04:21.401Z,98536.78
2018-06-28T09:05:28.080Z,98534.28
2018-06-28T09:06:34.036Z,98530.11
2018-06-28T09:07:39.540Z,98528.47
2018-06-28T09:08:45.861Z,98521.80
2018-06-28T09:09:51.280Z,98512.64
2018-06-28T09:10:57.111Z,98524.68
2018-06-28T09:12:02.208Z,98523.77
2018-06-28T09:13:08.410Z,98519.10
2018-06-28T09:14:15.613Z,98514.09
2018-06-28T09:15:20.252Z,98513.97
2018-06-28T09:16:24.880Z,98510.43
2018-06-28T09:17:30.314Z,98509.18
2018-06-28T09:18:36.244Z,98509.66
2018-06-28T09:19:42.566Z,98509.34
2018-06-28T09:20:48.728Z,98508.63
2018-06-28T09:21:56.253Z,98505.09
2018-06-28T09:23:02.265Z,98506.61
2018-06-28T09:24:09.209Z,98505.19
2018-06-28T09:25:16.111Z,98506.80
2018-06-28T09:32:41.765Z,98495.55
2018-06-28T09:33:48.158Z,98500.67
2018-06-28T09:34:53.639Z,98490.39
2018-06-28T09:35:58.313Z,98488.45
2018-06-28T09:37:04.757Z,98489.92
2018-06-28T09:38:09.821Z,98494.59
2018-06-28T09:39:16.243Z,98492.02
2018-06-28T09:40:21.705Z,98483.00
2018-06-28T09:41:29.948Z,98486.54
2018-06-28T09:42:34.480Z,98484.13
2018-06-28T09:43:39.311Z,98487.66
2018-06-28T09:44:45.248Z,98478.02
2018-06-28T09:45:53.020Z,98485.88
2018-06-28T09:46:59.337Z,98479.47
2018-06-28T09:48:04.664Z,98479.00
2018-06-28T09:49:10.207Z,98477.37
2018-06-28T09:50:15.496Z,98488.12
2018-06-28T09:51:22.098Z,98484.28
2018-06-28T09:52:31.159Z,98481.06
2018-06-28T09:53:40.080Z,98478.00
2018-06-28T09:56:00.574Z,98475.87
2018-06-28T09:57:06.258Z,98468.01
2018-06-28T09:58:13.031Z,98482.52
2018-06-28T09:59:18.289Z,98477.85
2018-06-28T10:00:30.139Z,98476.72
2018-06-28T10:01:35.749Z,98475.44
2018-06-28T10:02:42.159Z,98471.27
2018-06-28T10:03:48.979Z,98471.11
2018-06-28T10:04:55.319Z,98466.09
2018-06-28T10:06:01.239Z,98471.08
2018-06-28T10:07:06.301Z,98468.45
2018-06-28T10:08:12.452Z,98465.87
2018-06-28T10:09:17.275Z,98467.54
2018-06-28T10:10:22.505Z,98460.63
2018-06-28T10:11:28.543Z,98466.93
2018-06-28T10:12:34.518Z,98463.85
2018-06-28T10:13:39.279Z,98468.19
2018-06-28T10:14:44.106Z,98472.70
2018-06-28T10:15:49.709Z,98468.85
2018-06-28T10:18:11.156Z,98465.23
2018-06-28T10:19:17.026Z,98466.05
2018-06-28T10:20:23.346Z,98463.94
2018-06-28T10:21:28.467Z,98459.30
2018-06-28T10:22:34.596Z,98458.84
2018-06-28T10:23:40.422Z,98456.27
2018-06-28T10:24:45.149Z,98453.58
2018-06-28T10:25:50.866Z,98448.77
2018-06-28T10:26:56.791Z,98444.88
2018-06-28T10:28:03.648Z,98450.28
2018-06-28T10:29:09.184Z,98456.95
2018-06-28T10:30:15.924Z,98453.55
2018-06-28T10:31:21.567Z,98444.88
2018-06-28T10:32:29.017Z,98446.65
2018-06-28T10:33:35.714Z,98439.55
2018-06-28T10:34:41.077Z,98438.52
2018-06-28T10:35:45.879Z,98442.91
2018-06-28T10:43:39.632Z,98438.34
2018-06-28T10:44:48.851Z,98435.09
2018-06-28T10:45:54.941Z,98434.08
2018-06-28T10:46:59.658Z,98431.41
2018-06-28T10:48:08.712Z,98438.45
2018-06-28T10:49:38.424Z,98441.62
2018-06-28T10:51:15.069Z,98436.03
2018-06-28T10:54:00.173Z,98430.64
2018-06-28T10:55:36.531Z,98425.17
2018-06-28T10:59:55.593Z,98419.48
2018-06-28T11:06:25.791Z,98415.89
2018-06-28T11:07:32.510Z,98411.80
2018-06-28T11:08:47.884Z,98408.22
2018-06-28T11:09:56.160Z,98403.39
2018-06-28T11:11:06.505Z,98410.02
2018-06-28T11:15:30.272Z,98399.07
2018-06-28T11:16:38.074Z,98403.77
2018-06-28T11:17:44.636Z,98398.38
2018-06-28T11:18:53.412Z,98394.22
2018-06-28T11:19:59.453Z,98392.14
2018-06-28T11:21:07.082Z,98389.86
2018-06-28T11:22:12.654Z,98393.36
2018-06-28T11:23:19.588Z,98386.37
2018-06-28T11:24:24.293Z,98394.26
2018-06-28T11:25:31.104Z,98386.55
2018-06-28T11:26:38.404Z,98380.36
2018-06-28T11:27:44.350Z,98378.75
2018-06-28T11:28:49.380Z,98384.05
2018-06-28T11:29:54.041Z,98385.11
2018-06-28T11:31:02.301Z,98377.34
2018-06-28T11:32:07.395Z,98378.67
2018-06-28T11:33:12.756Z,98386.68
2018-06-28T11:34:19.723Z,98376.44
2018-06-28T11:35:25.852Z,98375.54
2018-06-28T11:36:31.267Z,98382.28
2018-06-28T11:37:45.275Z,98377.41
2018-06-28T11:41:57.684Z,98378.22
2018-06-28T11:43:04.575Z,98375.69
2018-06-28T11:45:54.729Z,98376.12
2018-06-28T11:46:59.271Z,98376.41
2018-06-28T11:48:05.401Z,98368.71
2018-06-28T11:49:09.890Z,98370.28
2018-06-28T11:50:15.144Z,98366.72
2018-06-28T11:51:21.421Z,98365.73
2018-06-28T11:52:33.473Z,98368.94
2018-06-28T11:54:06.593Z,98361.58
2018-06-28T12:01:48.308Z,98343.98
2018-06-28T12:03:15.428Z,98348.56
2018-06-28T19:53:14.778Z,98177.09
2018-06-28T19:55:37.555Z,98174.91
2018-06-28T19:56:42.114Z,98176.67
2018-06-28T19:57:47.764Z,98187.08
2018-06-28T19:58:54.570Z,98184.36
2018-06-28T20:00:00.424Z,98187.23
2018-06-28T20:01:10.069Z,98191.72
2018-06-28T20:02:19.706Z,98189.14
2018-06-28T20:03:30.272Z,98191.71
2018-06-28T20:41:54.737Z,98204.19
2018-06-28T20:44:35.404Z,98205.74
2018-06-28T20:53:25.414Z,98203.91
2018-06-28T20:54:48.100Z,98208.75
2018-06-28T21:01:52.838Z,98208.78
2018-06-28T21:03:13.231Z,98203.36
2018-06-28T21:14:37.120Z,98200.72
2018-06-28T21:18:59.685Z,98207.77
2018-06-28T21:28:26.669Z,98204.13
2018-06-28T21:29:36.790Z,98204.75
2018-06-28T21:30:52.966Z,98201.89
2018-06-28T21:33:29.392Z,98202.95
